sensor_id;sensor_type;location;lat;lon;timestamp;P1;durP1;ratioP1;P2;durP2;ratioP2
79668;SDS011;69136;52.614;6.976;2024-02-26T00:00:36;10.75;;;5.85;;
79668;SDS011;69136;52.614;6.976;2024-02-26T00:03:21;10.55;;;6.50;;
79668;SDS011;69136;52.614;6.976;2024-02-26T00:06:05;10.82;;;6.30;;
79668;SDS011;69136;52.614;6.976;2024-02-26T00:08:50;9.90;;;6.78;;
79668;SDS011;69136;52.614;6.976;2024-02-26T00:11:37;9.13;;;6.50;;
79668;SDS011;69136;52.614;6.976;2024-02-26T00:14:21;9.40;;;6.03;;
79668;SDS011;69136;52.614;6.976;2024-02-26T00:17:05;9.65;;;5.97;;
79668;SDS011;69136;52.614;6.976;2024-02-26T00:22:33;9.82;;;6.28;;
79668;SDS011;69136;52.614;6.976;2024-02-26T00:25:17;9.02;;;5.97;;
79668;SDS011;69136;52.614;6.976;2024-02-26T00:28:02;11.35;;;6.65;;
79668;SDS011;69136;52.614;6.976;2024-02-26T00:30:46;10.23;;;6.20;;
79668;SDS011;69136;52.614;6.976;2024-02-26T00:33:30;10.02;;;6.22;;
79668;SDS011;69136;52.614;6.976;2024-02-26T00:36:14;9.32;;;6.13;;
79668;SDS011;69136;52.614;6.976;2024-02-26T00:38:58;8.88;;;5.75;;
79668;SDS011;69136;52.614;6.976;2024-02-26T00:41:42;10.57;;;6.47;;
79668;SDS011;69136;52.614;6.976;2024-02-26T00:44:26;9.98;;;6.35;;
79668;SDS011;69136;52.614;6.976;2024-02-26T00:49:55;7.13;;;5.57;;
79668;SDS011;69136;52.614;6.976;2024-02-26T00:52:39;9.48;;;6.25;;
79668;SDS011;69136;52.614;6.976;2024-02-26T00:55:23;10.05;;;5.93;;
79668;SDS011;69136;52.614;6.976;2024-02-26T00:58:07;9.38;;;5.93;;
79668;SDS011;69136;52.614;6.976;2024-02-26T01:00:51;9.90;;;6.13;;
79668;SDS011;69136;52.614;6.976;2024-02-26T01:03:35;12.40;;;6.15;;
79668;SDS011;69136;52.614;6.976;2024-02-26T01:06:19;10.32;;;6.32;;
79668;SDS011;69136;52.614;6.976;2024-02-26T01:09:04;10.82;;;6.03;;
79668;SDS011;69136;52.614;6.976;2024-02-26T01:11:47;10.57;;;6.35;;
79668;SDS011;69136;52.614;6.976;2024-02-26T01:14:31;10.85;;;7.05;;
79668;SDS011;69136;52.614;6.976;2024-02-26T01:17:15;9.13;;;6.25;;
79668;SDS011;69136;52.614;6.976;2024-02-26T01:19:59;10.95;;;6.85;;
79668;SDS011;69136;52.614;6.976;2024-02-26T01:22:43;10.05;;;6.57;;
79668;SDS011;69136;52.614;6.976;2024-02-26T01:25:28;11.18;;;6.72;;
79668;SDS011;69136;52.614;6.976;2024-02-26T01:28:11;11.52;;;6.82;;
79668;SDS011;69136;52.614;6.976;2024-02-26T01:30:55;9.32;;;6.10;;
79668;SDS011;69136;52.614;6.976;2024-02-26T01:33:40;8.93;;;5.78;;
79668;SDS011;69136;52.614;6.976;2024-02-26T01:36:24;10.60;;;5.90;;
79668;SDS011;69136;52.614;6.976;2024-02-26T01:39:09;10.75;;;6.32;;
79668;SDS011;69136;52.614;6.976;2024-02-26T01:41:56;10.07;;;5.88;;
79668;SDS011;69136;52.614;6.976;2024-02-26T01:44:40;8.68;;;5.25;;
79668;SDS011;69136;52.614;6.976;2024-02-26T01:47:24;8.27;;;5.57;;
79668;SDS011;69136;52.614;6.976;2024-02-26T01:50:09;9.75;;;6.07;;
79668;SDS011;69136;52.614;6.976;2024-02-26T01:52:53;10.70;;;6.30;;
79668;SDS011;69136;52.614;6.976;2024-02-26T01:55:38;10.02;;;5.72;;
79668;SDS011;69136;52.614;6.976;2024-02-26T01:58:24;8.13;;;5.22;;
79668;SDS011;69136;52.614;6.976;2024-02-26T02:01:08;8.55;;;5.85;;
79668;SDS011;69136;52.614;6.976;2024-02-26T02:03:54;8.30;;;5.43;;
79668;SDS011;69136;52.614;6.976;2024-02-26T02:06:38;9.57;;;6.07;;
79668;SDS011;69136;52.614;6.976;2024-02-26T02:09:22;8.82;;;5.25;;
79668;SDS011;69136;52.614;6.976;2024-02-26T02:12:07;9.68;;;5.60;;
79668;SDS011;69136;52.614;6.976;2024-02-26T02:14:52;8.13;;;5.40;;
79668;SDS011;69136;52.614;6.976;2024-02-26T02:17:36;9.10;;;5.45;;
79668;SDS011;69136;52.614;6.976;2024-02-26T02:20:25;8.90;;;5.72;;
79668;SDS011;69136;52.614;6.976;2024-02-26T02:23:11;10.00;;;6.05;;
79668;SDS011;69136;52.614;6.976;2024-02-26T02:25:55;8.65;;;5.45;;
79668;SDS011;69136;52.614;6.976;2024-02-26T02:28:40;9.68;;;5.53;;
79668;SDS011;69136;52.614;6.976;2024-02-26T02:31:24;11.50;;;5.85;;
79668;SDS011;69136;52.614;6.976;2024-02-26T02:34:09;8.75;;;6.03;;
79668;SDS011;69136;52.614;6.976;2024-02-26T02:36:53;10.73;;;7.47;;
79668;SDS011;69136;52.614;6.976;2024-02-26T02:39:38;10.80;;;6.78;;
79668;SDS011;69136;52.614;6.976;2024-02-26T02:42:22;10.30;;;5.93;;
79668;SDS011;69136;52.614;6.976;2024-02-26T02:45:06;10.63;;;6.32;;
79668;SDS011;69136;52.614;6.976;2024-02-26T02:47:51;10.82;;;6.70;;
79668;SDS011;69136;52.614;6.976;2024-02-26T02:50:35;13.35;;;7.50;;
79668;SDS011;69136;52.614;6.976;2024-02-26T02:53:18;11.10;;;7.15;;
79668;SDS011;69136;52.614;6.976;2024-02-26T02:56:02;13.48;;;7.55;;
79668;SDS011;69136;52.614;6.976;2024-02-26T02:58:47;14.88;;;8.35;;
79668;SDS011;69136;52.614;6.976;2024-02-26T03:01:31;14.00;;;7.53;;
79668;SDS011;69136;52.614;6.976;2024-02-26T03:04:14;16.20;;;8.65;;
79668;SDS011;69136;52.614;6.976;2024-02-26T03:06:59;12.02;;;7.50;;
79668;SDS011;69136;52.614;6.976;2024-02-26T03:09:44;12.07;;;7.00;;
79668;SDS011;69136;52.614;6.976;2024-02-26T03:12:29;12.43;;;7.28;;
79668;SDS011;69136;52.614;6.976;2024-02-26T03:15:13;12.93;;;7.68;;
79668;SDS011;69136;52.614;6.976;2024-02-26T03:17:58;12.40;;;7.72;;
79668;SDS011;69136;52.614;6.976;2024-02-26T03:20:42;15.48;;;8.68;;
79668;SDS011;69136;52.614;6.976;2024-02-26T03:23:27;16.55;;;8.98;;
79668;SDS011;69136;52.614;6.976;2024-02-26T03:26:11;15.05;;;8.40;;
79668;SDS011;69136;52.614;6.976;2024-02-26T03:28:58;14.63;;;8.00;;
79668;SDS011;69136;52.614;6.976;2024-02-26T03:34:26;15.25;;;8.20;;
79668;SDS011;69136;52.614;6.976;2024-02-26T03:37:11;17.02;;;9.35;;
79668;SDS011;69136;52.614;6.976;2024-02-26T03:39:56;18.05;;;9.95;;
79668;SDS011;69136;52.614;6.976;2024-02-26T03:42:41;18.30;;;10.25;;
79668;SDS011;69136;52.614;6.976;2024-02-26T03:45:25;19.00;;;10.15;;
79668;SDS011;69136;52.614;6.976;2024-02-26T03:48:09;18.42;;;10.38;;
79668;SDS011;69136;52.614;6.976;2024-02-26T03:50:54;20.75;;;10.55;;
79668;SDS011;69136;52.614;6.976;2024-02-26T03:53:38;18.58;;;10.43;;
79668;SDS011;69136;52.614;6.976;2024-02-26T03:56:23;18.48;;;10.65;;
79668;SDS011;69136;52.614;6.976;2024-02-26T03:59:07;19.13;;;10.32;;
79668;SDS011;69136;52.614;6.976;2024-02-26T04:01:50;20.45;;;10.80;;
79668;SDS011;69136;52.614;6.976;2024-02-26T04:04:35;19.02;;;10.15;;
79668;SDS011;69136;52.614;6.976;2024-02-26T04:07:19;21.50;;;10.45;;
79668;SDS011;69136;52.614;6.976;2024-02-26T04:10:03;22.80;;;11.00;;
79668;SDS011;69136;52.614;6.976;2024-02-26T04:12:52;20.50;;;10.77;;
79668;SDS011;69136;52.614;6.976;2024-02-26T04:15:36;19.08;;;10.13;;
79668;SDS011;69136;52.614;6.976;2024-02-26T04:18:20;21.48;;;10.63;;
79668;SDS011;69136;52.614;6.976;2024-02-26T04:21:04;18.13;;;10.30;;
79668;SDS011;69136;52.614;6.976;2024-02-26T04:23:50;20.67;;;10.55;;
79668;SDS011;69136;52.614;6.976;2024-02-26T04:26:35;19.70;;;10.52;;
79668;SDS011;69136;52.614;6.976;2024-02-26T04:29:19;18.98;;;10.48;;
79668;SDS011;69136;52.614;6.976;2024-02-26T04:32:03;19.08;;;9.85;;
79668;SDS011;69136;52.614;6.976;2024-02-26T04:34:48;20.90;;;10.52;;
79668;SDS011;69136;52.614;6.976;2024-02-26T04:37:32;21.15;;;11.02;;
79668;SDS011;69136;52.614;6.976;2024-02-26T04:40:17;17.90;;;9.20;;
79668;SDS011;69136;52.614;6.976;2024-02-26T04:43:01;19.95;;;10.35;;
79668;SDS011;69136;52.614;6.976;2024-02-26T04:45:45;18.15;;;9.60;;
79668;SDS011;69136;52.614;6.976;2024-02-26T04:48:29;19.50;;;9.85;;
79668;SDS011;69136;52.614;6.976;2024-02-26T04:51:13;17.25;;;9.85;;
79668;SDS011;69136;52.614;6.976;2024-02-26T04:53:57;20.98;;;9.60;;
79668;SDS011;69136;52.614;6.976;2024-02-26T04:56:41;20.95;;;10.23;;
79668;SDS011;69136;52.614;6.976;2024-02-26T04:59:25;18.02;;;9.82;;
79668;SDS011;69136;52.614;6.976;2024-02-26T05:02:09;20.10;;;10.32;;
79668;SDS011;69136;52.614;6.976;2024-02-26T05:04:54;18.27;;;9.35;;
79668;SDS011;69136;52.614;6.976;2024-02-26T05:07:42;17.02;;;9.52;;
79668;SDS011;69136;52.614;6.976;2024-02-26T05:10:27;17.20;;;9.13;;
79668;SDS011;69136;52.614;6.976;2024-02-26T05:13:11;17.98;;;9.10;;
79668;SDS011;69136;52.614;6.976;2024-02-26T05:15:55;16.58;;;9.02;;
79668;SDS011;69136;52.614;6.976;2024-02-26T05:21:23;17.30;;;8.45;;
79668;SDS011;69136;52.614;6.976;2024-02-26T05:24:07;20.15;;;9.52;;
79668;SDS011;69136;52.614;6.976;2024-02-26T05:26:51;17.20;;;9.30;;
79668;SDS011;69136;52.614;6.976;2024-02-26T05:29:35;18.58;;;9.20;;
79668;SDS011;69136;52.614;6.976;2024-02-26T05:32:19;19.90;;;9.48;;
79668;SDS011;69136;52.614;6.976;2024-02-26T05:35:03;18.42;;;8.77;;
79668;SDS011;69136;52.614;6.976;2024-02-26T05:37:48;17.92;;;8.75;;
79668;SDS011;69136;52.614;6.976;2024-02-26T05:40:32;19.15;;;9.60;;
79668;SDS011;69136;52.614;6.976;2024-02-26T05:43:16;24.48;;;11.25;;
79668;SDS011;69136;52.614;6.976;2024-02-26T05:46:00;23.52;;;10.73;;
79668;SDS011;69136;52.614;6.976;2024-02-26T05:48:44;22.08;;;10.88;;
79668;SDS011;69136;52.614;6.976;2024-02-26T05:51:30;25.20;;;11.60;;
79668;SDS011;69136;52.614;6.976;2024-02-26T05:54:14;25.48;;;11.98;;
79668;SDS011;69136;52.614;6.976;2024-02-26T05:56:58;28.33;;;12.15;;
79668;SDS011;69136;52.614;6.976;2024-02-26T05:59:42;26.73;;;12.02;;
79668;SDS011;69136;52.614;6.976;2024-02-26T06:02:27;25.75;;;12.18;;
79668;SDS011;69136;52.614;6.976;2024-02-26T06:05:11;24.92;;;11.10;;
79668;SDS011;69136;52.614;6.976;2024-02-26T06:07:55;28.20;;;13.00;;
79668;SDS011;69136;52.614;6.976;2024-02-26T06:10:39;30.10;;;12.57;;
79668;SDS011;69136;52.614;6.976;2024-02-26T06:13:24;28.83;;;13.00;;
79668;SDS011;69136;52.614;6.976;2024-02-26T06:16:08;29.73;;;12.85;;
79668;SDS011;69136;52.614;6.976;2024-02-26T06:18:52;27.70;;;11.80;;
79668;SDS011;69136;52.614;6.976;2024-02-26T06:21:37;29.00;;;13.43;;
79668;SDS011;69136;52.614;6.976;2024-02-26T06:24:21;30.20;;;14.02;;
79668;SDS011;69136;52.614;6.976;2024-02-26T06:27:06;29.85;;;12.73;;
79668;SDS011;69136;52.614;6.976;2024-02-26T06:29:50;30.60;;;12.52;;
79668;SDS011;69136;52.614;6.976;2024-02-26T06:32:34;31.80;;;13.25;;
79668;SDS011;69136;52.614;6.976;2024-02-26T06:35:18;25.65;;;12.32;;
79668;SDS011;69136;52.614;6.976;2024-02-26T06:38:02;34.95;;;13.45;;
79668;SDS011;69136;52.614;6.976;2024-02-26T06:40:48;30.52;;;13.00;;
79668;SDS011;69136;52.614;6.976;2024-02-26T06:43:32;29.10;;;13.25;;
79668;SDS011;69136;52.614;6.976;2024-02-26T06:46:16;29.65;;;12.82;;
79668;SDS011;69136;52.614;6.976;2024-02-26T06:49:01;29.60;;;12.23;;
79668;SDS011;69136;52.614;6.976;2024-02-26T06:51:45;32.20;;;12.85;;
79668;SDS011;69136;52.614;6.976;2024-02-26T06:54:29;27.83;;;11.82;;
79668;SDS011;69136;52.614;6.976;2024-02-26T06:57:13;27.58;;;11.73;;
79668;SDS011;69136;52.614;6.976;2024-02-26T06:59:57;26.88;;;11.60;;
79668;SDS011;69136;52.614;6.976;2024-02-26T07:02:43;26.30;;;10.93;;
79668;SDS011;69136;52.614;6.976;2024-02-26T07:05:28;24.02;;;11.05;;
79668;SDS011;69136;52.614;6.976;2024-02-26T07:08:12;25.52;;;10.90;;
79668;SDS011;69136;52.614;6.976;2024-02-26T07:10:56;25.48;;;11.27;;
79668;SDS011;69136;52.614;6.976;2024-02-26T07:13:41;23.65;;;11.02;;
79668;SDS011;69136;52.614;6.976;2024-02-26T07:19:10;27.08;;;10.32;;
79668;SDS011;69136;52.614;6.976;2024-02-26T07:21:54;24.35;;;12.07;;
79668;SDS011;69136;52.614;6.976;2024-02-26T07:24:39;25.55;;;10.85;;
79668;SDS011;69136;52.614;6.976;2024-02-26T07:27:23;19.45;;;9.35;;
79668;SDS011;69136;52.614;6.976;2024-02-26T07:30:07;21.30;;;9.88;;
79668;SDS011;69136;52.614;6.976;2024-02-26T07:32:52;21.52;;;9.32;;
79668;SDS011;69136;52.614;6.976;2024-02-26T07:35:37;19.63;;;9.23;;
79668;SDS011;69136;52.614;6.976;2024-02-26T07:38:22;23.05;;;10.35;;
79668;SDS011;69136;52.614;6.976;2024-02-26T07:41:08;20.85;;;9.23;;
79668;SDS011;69136;52.614;6.976;2024-02-26T07:43:52;20.00;;;9.25;;
79668;SDS011;69136;52.614;6.976;2024-02-26T07:46:36;17.58;;;8.65;;
79668;SDS011;69136;52.614;6.976;2024-02-26T07:49:20;20.95;;;9.82;;
79668;SDS011;69136;52.614;6.976;2024-02-26T07:52:04;20.33;;;9.02;;
79668;SDS011;69136;52.614;6.976;2024-02-26T07:54:49;18.27;;;8.98;;
79668;SDS011;69136;52.614;6.976;2024-02-26T07:57:32;18.27;;;7.95;;
79668;SDS011;69136;52.614;6.976;2024-02-26T08:00:20;20.27;;;8.88;;
79668;SDS011;69136;52.614;6.976;2024-02-26T08:03:04;16.38;;;8.13;;
79668;SDS011;69136;52.614;6.976;2024-02-26T08:05:48;17.08;;;8.65;;
79668;SDS011;69136;52.614;6.976;2024-02-26T08:08:33;13.82;;;7.47;;
79668;SDS011;69136;52.614;6.976;2024-02-26T08:11:16;19.48;;;8.23;;
79668;SDS011;69136;52.614;6.976;2024-02-26T08:14:01;16.77;;;7.70;;
79668;SDS011;69136;52.614;6.976;2024-02-26T08:16:45;15.23;;;7.47;;
79668;SDS011;69136;52.614;6.976;2024-02-26T08:19:29;13.65;;;7.13;;
79668;SDS011;69136;52.614;6.976;2024-02-26T08:22:13;17.73;;;8.50;;
79668;SDS011;69136;52.614;6.976;2024-02-26T08:24:59;16.77;;;7.28;;
79668;SDS011;69136;52.614;6.976;2024-02-26T08:27:44;16.45;;;7.95;;
79668;SDS011;69136;52.614;6.976;2024-02-26T08:30:29;15.60;;;8.07;;
79668;SDS011;69136;52.614;6.976;2024-02-26T08:33:13;16.15;;;8.02;;
79668;SDS011;69136;52.614;6.976;2024-02-26T08:35:58;15.88;;;8.02;;
79668;SDS011;69136;52.614;6.976;2024-02-26T08:38:43;17.00;;;8.02;;
79668;SDS011;69136;52.614;6.976;2024-02-26T08:41:27;14.98;;;7.32;;
79668;SDS011;69136;52.614;6.976;2024-02-26T08:44:12;16.95;;;8.32;;
79668;SDS011;69136;52.614;6.976;2024-02-26T08:46:56;14.38;;;7.35;;
79668;SDS011;69136;52.614;6.976;2024-02-26T08:49:44;15.70;;;8.05;;
79668;SDS011;69136;52.614;6.976;2024-02-26T08:52:29;14.50;;;7.72;;
79668;SDS011;69136;52.614;6.976;2024-02-26T08:55:13;14.38;;;6.50;;
79668;SDS011;69136;52.614;6.976;2024-02-26T08:57:57;15.98;;;7.03;;
79668;SDS011;69136;52.614;6.976;2024-02-26T09:00:42;16.83;;;8.25;;
79668;SDS011;69136;52.614;6.976;2024-02-26T09:03:25;15.63;;;7.10;;
79668;SDS011;69136;52.614;6.976;2024-02-26T09:06:10;15.52;;;7.43;;
79668;SDS011;69136;52.614;6.976;2024-02-26T09:08:55;14.13;;;6.95;;
79668;SDS011;69136;52.614;6.976;2024-02-26T09:11:40;13.52;;;6.93;;
79668;SDS011;69136;52.614;6.976;2024-02-26T09:14:24;13.18;;;6.55;;
79668;SDS011;69136;52.614;6.976;2024-02-26T09:17:09;14.45;;;7.20;;
79668;SDS011;69136;52.614;6.976;2024-02-26T09:19:53;15.18;;;7.22;;
79668;SDS011;69136;52.614;6.976;2024-02-26T09:22:36;12.77;;;6.43;;
79668;SDS011;69136;52.614;6.976;2024-02-26T09:25:21;15.15;;;7.22;;
79668;SDS011;69136;52.614;6.976;2024-02-26T09:28:05;13.75;;;6.80;;
79668;SDS011;69136;52.614;6.976;2024-02-26T09:30:50;15.40;;;6.72;;
79668;SDS011;69136;52.614;6.976;2024-02-26T09:33:35;11.80;;;6.38;;
79668;SDS011;69136;52.614;6.976;2024-02-26T09:36:19;15.63;;;6.63;;
79668;SDS011;69136;52.614;6.976;2024-02-26T09:39:03;16.15;;;6.88;;
79668;SDS011;69136;52.614;6.976;2024-02-26T09:41:48;12.15;;;6.43;;
79668;SDS011;69136;52.614;6.976;2024-02-26T09:44:32;9.65;;;5.28;;
79668;SDS011;69136;52.614;6.976;2024-02-26T09:47:20;10.95;;;5.63;;
79668;SDS011;69136;52.614;6.976;2024-02-26T09:50:06;11.68;;;6.00;;
79668;SDS011;69136;52.614;6.976;2024-02-26T09:52:53;13.32;;;6.55;;
79668;SDS011;69136;52.614;6.976;2024-02-26T09:55:38;10.63;;;5.72;;
79668;SDS011;69136;52.614;6.976;2024-02-26T09:58:22;13.65;;;6.38;;
79668;SDS011;69136;52.614;6.976;2024-02-26T10:01:09;10.00;;;5.68;;
79668;SDS011;69136;52.614;6.976;2024-02-26T10:03:55;9.65;;;5.07;;
79668;SDS011;69136;52.614;6.976;2024-02-26T10:06:41;9.82;;;5.40;;
79668;SDS011;69136;52.614;6.976;2024-02-26T10:09:28;10.15;;;5.55;;
79668;SDS011;69136;52.614;6.976;2024-02-26T10:12:12;10.90;;;5.90;;
79668;SDS011;69136;52.614;6.976;2024-02-26T10:14:56;10.98;;;5.85;;
79668;SDS011;69136;52.614;6.976;2024-02-26T10:17:41;9.55;;;5.47;;
79668;SDS011;69136;52.614;6.976;2024-02-26T10:20:25;10.68;;;5.47;;
79668;SDS011;69136;52.614;6.976;2024-02-26T10:23:11;10.50;;;5.60;;
79668;SDS011;69136;52.614;6.976;2024-02-26T10:25:55;8.90;;;5.13;;
79668;SDS011;69136;52.614;6.976;2024-02-26T10:28:39;11.90;;;5.45;;
79668;SDS011;69136;52.614;6.976;2024-02-26T10:31:24;10.55;;;5.80;;
79668;SDS011;69136;52.614;6.976;2024-02-26T10:34:09;10.45;;;5.40;;
79668;SDS011;69136;52.614;6.976;2024-02-26T10:36:53;8.90;;;5.18;;
79668;SDS011;69136;52.614;6.976;2024-02-26T10:39:38;10.07;;;5.07;;
79668;SDS011;69136;52.614;6.976;2024-02-26T10:42:21;8.85;;;5.63;;
79668;SDS011;69136;52.614;6.976;2024-02-26T10:45:06;8.38;;;5.47;;
79668;SDS011;69136;52.614;6.976;2024-02-26T10:47:53;10.98;;;5.45;;
79668;SDS011;69136;52.614;6.976;2024-02-26T10:50:37;8.88;;;5.00;;
79668;SDS011;69136;52.614;6.976;2024-02-26T10:53:22;8.68;;;4.90;;
79668;SDS011;69136;52.614;6.976;2024-02-26T10:56:07;10.57;;;5.50;;
79668;SDS011;69136;52.614;6.976;2024-02-26T10:58:53;11.07;;;5.38;;
79668;SDS011;69136;52.614;6.976;2024-02-26T11:01:37;9.15;;;4.93;;
79668;SDS011;69136;52.614;6.976;2024-02-26T11:04:25;11.23;;;5.70;;
79668;SDS011;69136;52.614;6.976;2024-02-26T11:07:11;9.93;;;5.15;;
79668;SDS011;69136;52.614;6.976;2024-02-26T11:09:56;9.15;;;5.22;;
79668;SDS011;69136;52.614;6.976;2024-02-26T11:12:40;7.30;;;4.55;;
79668;SDS011;69136;52.614;6.976;2024-02-26T11:15:25;7.05;;;4.22;;
79668;SDS011;69136;52.614;6.976;2024-02-26T11:18:09;8.68;;;5.57;;
79668;SDS011;69136;52.614;6.976;2024-02-26T11:20:54;7.88;;;4.60;;
79668;SDS011;69136;52.614;6.976;2024-02-26T11:23:41;8.65;;;4.82;;
79668;SDS011;69136;52.614;6.976;2024-02-26T11:26:25;9.55;;;5.47;;
79668;SDS011;69136;52.614;6.976;2024-02-26T11:29:10;7.93;;;4.90;;
79668;SDS011;69136;52.614;6.976;2024-02-26T11:31:56;8.02;;;4.45;;
79668;SDS011;69136;52.614;6.976;2024-02-26T11:34:43;9.75;;;4.82;;
79668;SDS011;69136;52.614;6.976;2024-02-26T11:37:27;9.38;;;4.97;;
79668;SDS011;69136;52.614;6.976;2024-02-26T11:40:12;8.63;;;4.55;;
79668;SDS011;69136;52.614;6.976;2024-02-26T11:42:58;10.32;;;5.03;;
79668;SDS011;69136;52.614;6.976;2024-02-26T11:48:31;8.02;;;4.80;;
79668;SDS011;69136;52.614;6.976;2024-02-26T11:51:15;9.57;;;5.20;;
79668;SDS011;69136;52.614;6.976;2024-02-26T11:54:00;8.18;;;4.78;;
79668;SDS011;69136;52.614;6.976;2024-02-26T11:56:44;8.00;;;4.28;;
79668;SDS011;69136;52.614;6.976;2024-02-26T11:59:38;8.13;;;4.63;;
79668;SDS011;69136;52.614;6.976;2024-02-26T12:05:44;9.38;;;4.60;;
79668;SDS011;69136;52.614;6.976;2024-02-26T12:08:29;8.75;;;4.40;;
79668;SDS011;69136;52.614;6.976;2024-02-26T12:11:16;8.02;;;4.90;;
79668;SDS011;69136;52.614;6.976;2024-02-26T12:14:00;8.40;;;4.65;;
79668;SDS011;69136;52.614;6.976;2024-02-26T12:16:44;9.55;;;5.50;;
79668;SDS011;69136;52.614;6.976;2024-02-26T12:19:28;7.80;;;4.40;;
79668;SDS011;69136;52.614;6.976;2024-02-26T12:22:14;6.75;;;3.97;;
79668;SDS011;69136;52.614;6.976;2024-02-26T12:24:59;7.90;;;4.38;;
79668;SDS011;69136;52.614;6.976;2024-02-26T12:27:44;8.35;;;4.90;;
79668;SDS011;69136;52.614;6.976;2024-02-26T12:30:28;8.73;;;4.68;;
79668;SDS011;69136;52.614;6.976;2024-02-26T12:33:18;9.75;;;4.47;;
79668;SDS011;69136;52.614;6.976;2024-02-26T12:38:47;8.40;;;4.28;;
79668;SDS011;69136;52.614;6.976;2024-02-26T12:41:31;9.18;;;4.82;;
79668;SDS011;69136;52.614;6.976;2024-02-26T12:44:16;9.75;;;5.53;;
79668;SDS011;69136;52.614;6.976;2024-02-26T12:47:00;8.85;;;4.70;;
79668;SDS011;69136;52.614;6.976;2024-02-26T12:49:48;9.18;;;4.75;;
79668;SDS011;69136;52.614;6.976;2024-02-26T12:52:33;8.85;;;4.57;;
79668;SDS011;69136;52.614;6.976;2024-02-26T12:55:18;8.35;;;4.90;;
79668;SDS011;69136;52.614;6.976;2024-02-26T12:58:06;7.97;;;4.70;;
79668;SDS011;69136;52.614;6.976;2024-02-26T13:00:51;10.73;;;5.35;;
79668;SDS011;69136;52.614;6.976;2024-02-26T13:03:36;9.98;;;4.70;;
79668;SDS011;69136;52.614;6.976;2024-02-26T13:06:20;8.50;;;4.78;;
79668;SDS011;69136;52.614;6.976;2024-02-26T13:09:05;9.20;;;4.90;;
79668;SDS011;69136;52.614;6.976;2024-02-26T13:11:55;9.30;;;4.68;;
79668;SDS011;69136;52.614;6.976;2024-02-26T13:14:40;11.52;;;4.97;;
79668;SDS011;69136;52.614;6.976;2024-02-26T13:17:24;9.23;;;5.05;;
79668;SDS011;69136;52.614;6.976;2024-02-26T13:20:11;9.05;;;5.03;;
79668;SDS011;69136;52.614;6.976;2024-02-26T13:23:06;9.07;;;4.28;;
79668;SDS011;69136;52.614;6.976;2024-02-26T13:25:55;9.20;;;4.95;;
79668;SDS011;69136;52.614;6.976;2024-02-26T13:28:40;10.60;;;4.65;;
79668;SDS011;69136;52.614;6.976;2024-02-26T13:31:24;9.25;;;4.55;;
79668;SDS011;69136;52.614;6.976;2024-02-26T13:34:08;8.90;;;4.85;;
79668;SDS011;69136;52.614;6.976;2024-02-26T13:39:39;7.78;;;4.45;;
79668;SDS011;69136;52.614;6.976;2024-02-26T13:42:26;9.77;;;5.28;;
79668;SDS011;69136;52.614;6.976;2024-02-26T13:45:09;8.38;;;4.97;;
79668;SDS011;69136;52.614;6.976;2024-02-26T13:47:54;11.05;;;5.32;;
79668;SDS011;69136;52.614;6.976;2024-02-26T13:50:47;8.40;;;4.93;;
79668;SDS011;69136;52.614;6.976;2024-02-26T13:53:30;8.75;;;4.63;;
79668;SDS011;69136;52.614;6.976;2024-02-26T13:58:59;10.20;;;4.93;;
79668;SDS011;69136;52.614;6.976;2024-02-26T14:01:43;10.13;;;5.13;;
79668;SDS011;69136;52.614;6.976;2024-02-26T14:04:27;10.48;;;5.63;;
79668;SDS011;69136;52.614;6.976;2024-02-26T14:07:12;9.80;;;4.90;;
79668;SDS011;69136;52.614;6.976;2024-02-26T14:10:01;8.57;;;4.50;;
79668;SDS011;69136;52.614;6.976;2024-02-26T14:12:44;9.95;;;5.40;;
79668;SDS011;69136;52.614;6.976;2024-02-26T14:15:28;8.43;;;4.57;;
79668;SDS011;69136;52.614;6.976;2024-02-26T14:18:13;10.30;;;5.43;;
79668;SDS011;69136;52.614;6.976;2024-02-26T14:20:57;7.75;;;4.45;;
79668;SDS011;69136;52.614;6.976;2024-02-26T14:23:41;9.35;;;5.63;;
79668;SDS011;69136;52.614;6.976;2024-02-26T14:26:26;11.02;;;5.30;;
79668;SDS011;69136;52.614;6.976;2024-02-26T14:29:10;10.00;;;4.82;;
79668;SDS011;69136;52.614;6.976;2024-02-26T14:31:54;9.88;;;4.70;;
79668;SDS011;69136;52.614;6.976;2024-02-26T14:34:40;9.63;;;5.40;;
79668;SDS011;69136;52.614;6.976;2024-02-26T14:37:24;9.57;;;5.22;;
79668;SDS011;69136;52.614;6.976;2024-02-26T14:40:08;8.02;;;5.47;;
79668;SDS011;69136;52.614;6.976;2024-02-26T14:42:53;10.23;;;4.70;;
79668;SDS011;69136;52.614;6.976;2024-02-26T14:45:37;8.55;;;4.60;;
79668;SDS011;69136;52.614;6.976;2024-02-26T14:48:22;8.27;;;5.05;;
79668;SDS011;69136;52.614;6.976;2024-02-26T14:51:06;9.50;;;5.63;;
79668;SDS011;69136;52.614;6.976;2024-02-26T14:53:50;10.27;;;5.25;;
79668;SDS011;69136;52.614;6.976;2024-02-26T14:56:34;8.77;;;5.82;;
79668;SDS011;69136;52.614;6.976;2024-02-26T14:59:18;12.13;;;6.40;;
79668;SDS011;69136;52.614;6.976;2024-02-26T15:04:46;10.00;;;5.85;;
79668;SDS011;69136;52.614;6.976;2024-02-26T15:07:32;10.40;;;6.32;;
79668;SDS011;69136;52.614;6.976;2024-02-26T15:10:16;11.43;;;6.45;;
79668;SDS011;69136;52.614;6.976;2024-02-26T15:13:00;12.32;;;7.28;;
79668;SDS011;69136;52.614;6.976;2024-02-26T15:15:44;13.20;;;6.93;;
79668;SDS011;69136;52.614;6.976;2024-02-26T15:18:28;12.55;;;6.82;;
79668;SDS011;69136;52.614;6.976;2024-02-26T15:21:12;13.50;;;7.28;;
79668;SDS011;69136;52.614;6.976;2024-02-26T15:23:57;11.27;;;5.50;;
79668;SDS011;69136;52.614;6.976;2024-02-26T15:26:40;10.90;;;6.55;;
79668;SDS011;69136;52.614;6.976;2024-02-26T15:29:24;11.73;;;6.90;;
79668;SDS011;69136;52.614;6.976;2024-02-26T15:32:10;12.75;;;7.38;;
79668;SDS011;69136;52.614;6.976;2024-02-26T15:34:54;12.93;;;6.82;;
79668;SDS011;69136;52.614;6.976;2024-02-26T15:37:39;14.63;;;7.63;;
79668;SDS011;69136;52.614;6.976;2024-02-26T15:40:22;13.85;;;7.20;;
79668;SDS011;69136;52.614;6.976;2024-02-26T15:43:06;13.57;;;7.25;;
79668;SDS011;69136;52.614;6.976;2024-02-26T15:45:51;12.02;;;6.97;;
79668;SDS011;69136;52.614;6.976;2024-02-26T15:48:38;13.20;;;6.88;;
79668;SDS011;69136;52.614;6.976;2024-02-26T15:51:22;12.65;;;7.22;;
79668;SDS011;69136;52.614;6.976;2024-02-26T15:54:09;13.98;;;7.60;;
79668;SDS011;69136;52.614;6.976;2024-02-26T15:56:54;13.80;;;6.68;;
79668;SDS011;69136;52.614;6.976;2024-02-26T15:59:38;14.27;;;7.57;;
79668;SDS011;69136;52.614;6.976;2024-02-26T16:02:22;12.00;;;6.32;;
79668;SDS011;69136;52.614;6.976;2024-02-26T16:05:07;13.40;;;7.25;;
79668;SDS011;69136;52.614;6.976;2024-02-26T16:07:53;13.18;;;6.88;;
79668;SDS011;69136;52.614;6.976;2024-02-26T16:10:39;15.07;;;8.20;;
79668;SDS011;69136;52.614;6.976;2024-02-26T16:13:24;18.00;;;8.00;;
79668;SDS011;69136;52.614;6.976;2024-02-26T16:16:10;14.07;;;7.00;;
79668;SDS011;69136;52.614;6.976;2024-02-26T16:19:04;14.95;;;6.93;;
79668;SDS011;69136;52.614;6.976;2024-02-26T16:21:50;16.20;;;7.30;;
79668;SDS011;69136;52.614;6.976;2024-02-26T16:24:34;13.27;;;7.75;;
79668;SDS011;69136;52.614;6.976;2024-02-26T16:27:19;15.25;;;7.53;;
79668;SDS011;69136;52.614;6.976;2024-02-26T16:30:04;13.95;;;7.65;;
79668;SDS011;69136;52.614;6.976;2024-02-26T16:32:48;14.43;;;7.63;;
79668;SDS011;69136;52.614;6.976;2024-02-26T16:38:16;16.00;;;7.75;;
79668;SDS011;69136;52.614;6.976;2024-02-26T16:41:01;14.57;;;7.18;;
79668;SDS011;69136;52.614;6.976;2024-02-26T16:43:44;16.02;;;7.88;;
79668;SDS011;69136;52.614;6.976;2024-02-26T16:46:28;13.35;;;7.47;;
79668;SDS011;69136;52.614;6.976;2024-02-26T16:49:12;15.02;;;7.35;;
79668;SDS011;69136;52.614;6.976;2024-02-26T16:54:45;14.02;;;7.53;;